Time;durP1;ratioP1;P1;durP2;ratioP2;P2;SDS_P1;SDS_P2;PMS_P1;PMS_P2;Temp;Humidity;BMP_temperature;BMP_pressure;BME280_temperature;BME280_humidity;BME280_pressure;Samples;Min_cycle;Max_cycle;Signal;HPM_P1;HPM_P2
2023/05/11 00:00:25;;;;;;;10.23;9.23;;;11.90;99.90;;;;;;5017163;28;20667;-74
2023/05/11 00:02:52;;;;;;;13.97;11.80;;;12.00;99.90;;;;;;5025337;28;20238;-75
2023/05/11 00:05:19;;;;;;;12.47;10.53;;;11.90;99.90;;;;;;5037135;28;20201;-79
2023/05/11 00:07:46;;;;;;;14.00;11.87;;;11.90;99.90;;;;;;5036793;28;20233;-74
2023/05/11 00:10:14;;;;;;;13.43;11.40;;;12.00;99.90;;;;;;5022406;28;20292;-75
2023/05/11 00:12:41;;;;;;;16.20;13.33;;;12.00;99.90;;;;;;5016914;28;20243;-74
2023/05/11 00:15:08;;;;;;;16.80;13.57;;;12.00;99.90;;;;;;5017269;28;20303;-76
2023/05/11 00:17:35;;;;;;;21.00;14.43;;;12.00;99.90;;;;;;5016701;28;20203;-76
2023/05/11 00:20:03;;;;;;;19.57;13.70;;;11.90;99.90;;;;;;5030128;28;20297;-75
2023/05/11 00:22:30;;;;;;;33.80;19.53;;;11.90;99.90;;;;;;5036498;28;20284;-75
2023/05/11 00:24:57;;;;;;;26.27;18.10;;;11.90;99.90;;;;;;5035187;28;20546;-75
2023/05/11 00:27:25;;;;;;;43.30;22.10;;;11.80;99.90;;;;;;5036919;28;20199;-80
2023/05/11 00:29:52;;;;;;;28.43;19.10;;;11.80;99.90;;;;;;5034800;28;20210;-75
2023/05/11 00:32:19;;;;;;;25.33;17.87;;;11.80;99.90;;;;;;5036346;28;20218;-76
2023/05/11 00:34:46;;;;;;;27.27;17.93;;;11.80;99.90;;;;;;5036111;28;20288;-75
2023/05/11 00:37:12;;;;;;;27.20;18.27;;;11.80;99.90;;;;;;5026921;28;20561;-75
2023/05/11 00:39:40;;;;;;;29.30;18.43;;;11.90;99.90;;;;;;5016777;28;20291;-81
2023/05/11 00:42:07;;;;;;;28.83;18.23;;;11.90;99.90;;;;;;5016690;28;20204;-75
2023/05/11 00:44:35;;;;;;;29.73;19.00;;;11.80;99.90;;;;;;5016079;28;20199;-74
2023/05/11 00:47:02;;;;;;;23.97;16.23;;;11.80;99.90;;;;;;5016600;28;20225;-74
2023/05/11 00:49:30;;;;;;;29.17;18.13;;;11.80;99.90;;;;;;5016334;28;20207;-81
2023/05/11 00:52:01;;;;;;;28.83;19.23;;;11.80;99.90;;;;;;5014500;28;20318;-75
2023/05/11 00:54:28;;;;;;;28.63;19.73;;;11.80;99.90;;;;;;5016233;28;20199;-78
2023/05/11 00:56:55;;;;;;;24.20;16.33;;;11.70;99.90;;;;;;5016456;28;20196;-76
2023/05/11 00:59:22;;;;;;;28.93;18.40;;;11.80;99.90;;;;;;5015756;28;20227;-76
2023/05/11 01:01:50;;;;;;;30.03;18.83;;;11.80;99.90;;;;;;5016165;28;20614;-75
2023/05/11 01:04:17;;;;;;;28.30;18.23;;;11.70;99.90;;;;;;5015940;28;20714;-80
2023/05/11 01:06:51;;;;;;;24.97;16.07;;;11.70;99.90;;;;;;5015601;28;20199;-80
2023/05/11 01:09:27;;;;;;;27.37;17.57;;;11.70;99.90;;;;;;5015958;28;20201;-74
2023/05/11 01:12:07;;;;;;;29.47;17.13;;;11.70;99.90;;;;;;5016680;28;20496;-74
2023/05/11 01:14:44;;;;;;;27.07;17.10;;;11.70;99.90;;;;;;5015902;28;20190;-80
2023/05/11 01:17:18;;;;;;;21.63;14.60;;;11.70;99.90;;;;;;5015904;28;20217;-75
2023/05/11 01:19:52;;;;;;;24.10;14.93;;;11.70;99.90;;;;;;5015373;28;20537;-81
2023/05/11 01:22:31;;;;;;;22.40;14.87;;;11.70;99.90;;;;;;5015850;28;20200;-80
2023/05/11 01:25:10;;;;;;;23.73;14.13;;;11.70;99.90;;;;;;5016021;28;20278;-79
2023/05/11 01:27:56;;;;;;;24.90;14.50;;;11.60;99.90;;;;;;5015425;28;20218;-76
2023/05/11 01:30:29;;;;;;;20.40;13.87;;;11.60;99.90;;;;;;5015767;28;20195;-75
2023/05/11 01:33:00;;;;;;;22.33;15.80;;;11.60;99.90;;;;;;5015839;28;20283;-75
2023/05/11 01:35:29;;;;;;;21.27;14.13;;;11.60;99.90;;;;;;5022300;28;20217;-75
2023/05/11 01:37:59;;;;;;;25.87;15.70;;;11.60;99.90;;;;;;5035846;28;20202;-78
2023/05/11 01:40:29;;;;;;;23.87;14.83;;;11.50;99.90;;;;;;5035363;28;20203;-80
2023/05/11 01:43:01;;;;;;;20.93;14.23;;;11.60;99.90;;;;;;5021308;28;20203;-81
2023/05/11 01:45:31;;;;;;;17.43;13.17;;;11.60;99.90;;;;;;5015818;28;20604;-80
2023/05/11 01:48:01;;;;;;;19.70;13.63;;;11.60;99.90;;;;;;5014873;28;20523;-79
2023/05/11 01:50:29;;;;;;;21.57;14.50;;;11.60;99.90;;;;;;5016019;28;20207;-79
2023/05/11 01:52:56;;;;;;;24.40;16.03;;;11.70;99.90;;;;;;5015834;28;20207;-79
2023/05/11 01:55:25;;;;;;;25.10;15.37;;;11.70;99.90;;;;;;5015438;28;20211;-79
2023/05/11 01:57:54;;;;;;;28.53;18.57;;;11.70;99.90;;;;;;5015417;28;20815;-79
2023/05/11 02:00:22;;;;;;;30.20;17.47;;;11.80;99.90;;;;;;5029909;28;20213;-81
2023/05/11 02:02:52;;;;;;;30.37;18.30;;;11.80;99.90;;;;;;5034598;28;20525;-80
2023/05/11 02:05:22;;;;;;;29.87;17.73;;;11.80;99.90;;;;;;5034892;28;20202;-76
2023/05/11 02:07:50;;;;;;;29.57;17.67;;;11.80;99.90;;;;;;5030519;28;20286;-74
2023/05/11 02:10:19;;;;;;;26.00;16.40;;;11.90;99.90;;;;;;5014372;28;20199;-75
2023/05/11 02:12:47;;;;;;;24.37;15.37;;;11.90;99.90;;;;;;5014468;28;20230;-75
2023/05/11 02:15:16;;;;;;;30.83;18.50;;;11.90;99.90;;;;;;5014988;28;20210;-75
2023/05/11 02:17:43;;;;;;;37.43;20.20;;;11.90;99.90;;;;;;5014664;28;20596;-75
2023/05/11 02:20:13;;;;;;;35.53;20.80;;;11.90;99.90;;;;;;5014579;28;20205;-81
2023/05/11 02:22:42;;;;;;;31.80;18.67;;;11.90;99.90;;;;;;5016755;28;20202;-80
2023/05/11 02:25:10;;;;;;;30.27;17.80;;;11.90;99.90;;;;;;5034176;28;20195;-74
2023/05/11 02:27:37;;;;;;;32.63;19.67;;;11.90;99.90;;;;;;5026311;28;20211;-75
2023/05/11 02:30:07;;;;;;;27.93;17.87;;;11.90;99.90;;;;;;5014490;28;20210;-75
2023/05/11 02:32:37;;;;;;;30.87;18.10;;;11.90;99.90;;;;;;5030339;28;20218;-75
2023/05/11 02:35:08;;;;;;;39.70;21.53;;;11.90;99.90;;;;;;5025838;28;20199;-76
2023/05/11 02:37:43;;;;;;;36.37;20.10;;;11.90;99.90;;;;;;5014260;28;20226;-75
2023/05/11 02:40:16;;;;;;;32.23;18.70;;;11.90;99.90;;;;;;5014721;28;20200;-74
2023/05/11 02:42:45;;;;;;;34.40;20.33;;;11.80;99.90;;;;;;5015467;28;20214;-75
2023/05/11 02:45:15;;;;;;;32.00;18.83;;;11.80;99.90;;;;;;5033950;28;20264;-74
2023/05/11 02:47:47;;;;;;;31.87;19.57;;;11.80;99.90;;;;;;5034338;28;20199;-81
2023/05/11 02:50:15;;;;;;;27.73;17.23;;;11.80;99.90;;;;;;5034035;28;20194;-74
2023/05/11 02:52:46;;;;;;;27.50;16.30;;;11.80;99.90;;;;;;5032192;28;20233;-75
2023/05/11 02:55:17;;;;;;;29.33;17.77;;;11.70;99.90;;;;;;5033779;28;20226;-75
2023/05/11 02:57:44;;;;;;;29.10;17.10;;;11.70;99.90;;;;;;5033453;28;20218;-74
2023/05/11 03:00:12;;;;;;;29.30;16.90;;;11.70;99.90;;;;;;5034069;28;20198;-75
2023/05/11 03:02:39;;;;;;;28.27;17.40;;;11.70;99.90;;;;;;5034270;28;20191;-82
2023/05/11 03:05:06;;;;;;;24.33;14.87;;;11.70;99.90;;;;;;5015508;28;20207;-82
2023/05/11 03:07:34;;;;;;;25.37;16.00;;;11.70;99.90;;;;;;5014286;28;20207;-74
2023/05/11 03:10:02;;;;;;;24.93;15.23;;;11.70;99.90;;;;;;5014272;28;20226;-74
2023/05/11 03:12:31;;;;;;;27.67;16.43;;;11.70;99.90;;;;;;5013048;28;20528;-74
2023/05/11 03:14:59;;;;;;;26.47;17.07;;;11.80;99.90;;;;;;5013683;28;20208;-81
2023/05/11 03:17:27;;;;;;;24.90;15.47;;;11.80;99.90;;;;;;5013981;28;20207;-75
2023/05/11 03:19:55;;;;;;;24.00;15.83;;;11.80;99.90;;;;;;5013664;28;20218;-74
2023/05/11 03:22:22;;;;;;;25.17;15.67;;;11.80;99.90;;;;;;5028430;28;20520;-81
2023/05/11 03:24:50;;;;;;;23.30;14.53;;;11.80;99.90;;;;;;5029174;28;20207;-75
2023/05/11 03:27:18;;;;;;;22.67;14.93;;;11.80;99.90;;;;;;5013472;28;20207;-76
2023/05/11 03:29:46;;;;;;;22.73;14.07;;;11.80;99.90;;;;;;5013840;28;20634;-75
2023/05/11 03:32:14;;;;;;;25.73;16.40;;;11.80;99.90;;;;;;5013841;28;20225;-81
2023/05/11 03:34:41;;;;;;;22.87;15.20;;;11.80;99.90;;;;;;5013386;28;20215;-81
2023/05/11 03:37:11;;;;;;;24.13;15.13;;;11.80;99.90;;;;;;5013423;28;20823;-74
2023/05/11 03:39:39;;;;;;;24.20;14.87;;;11.80;99.90;;;;;;5013920;28;20213;-74
2023/05/11 03:42:07;;;;;;;22.33;14.57;;;11.80;99.90;;;;;;5013257;28;20207;-74
2023/05/11 03:44:37;;;;;;;21.50;14.23;;;11.70;99.90;;;;;;5013409;28;20235;-74
2023/05/11 03:47:04;;;;;;;21.17;14.70;;;11.70;99.90;;;;;;5013124;28;20860;-75
2023/05/11 03:49:31;;;;;;;23.70;15.00;;;11.70;99.90;;;;;;5013567;28;20215;-74
2023/05/11 03:51:59;;;;;;;23.67;15.00;;;11.70;99.90;;;;;;5013594;28;20223;-76
2023/05/11 03:54:26;;;;;;;24.13;15.43;;;11.70;99.90;;;;;;5012822;28;20226;-79
2023/05/11 03:56:53;;;;;;;25.23;15.47;;;11.70;99.90;;;;;;5013649;28;20295;-79
2023/05/11 03:59:20;;;;;;;24.57;15.30;;;11.70;99.90;;;;;;5013730;28;20736;-74
2023/05/11 04:01:51;;;;;;;19.27;13.57;;;11.70;99.90;;;;;;5013206;28;20199;-79
2023/05/11 04:04:18;;;;;;;25.17;15.67;;;11.70;99.90;;;;;;5013076;28;20231;-80
2023/05/11 04:06:45;;;;;;;21.77;14.60;;;11.70;99.90;;;;;;5013798;28;20498;-77
2023/05/11 04:09:12;;;;;;;26.67;16.43;;;11.70;99.90;;;;;;5012936;28;20287;-76
2023/05/11 04:11:39;;;;;;;28.00;17.80;;;11.70;99.90;;;;;;5027929;28;20222;-77
2023/05/11 04:14:06;;;;;;;26.60;16.60;;;11.80;99.90;;;;;;5033177;28;20195;-76
2023/05/11 04:16:34;;;;;;;24.10;17.00;;;11.80;99.90;;;;;;5032923;28;20221;-77
2023/05/11 04:19:02;;;;;;;24.03;16.17;;;11.80;99.90;;;;;;5018232;28;20210;-79
2023/05/11 04:21:30;;;;;;;25.80;17.13;;;11.80;99.90;;;;;;5013418;28;20225;-76
2023/05/11 04:23:56;;;;;;;23.13;14.90;;;11.80;99.90;;;;;;5013178;28;20469;-81
2023/05/11 04:26:23;;;;;;;19.70;13.53;;;11.80;99.90;;;;;;5014595;28;20199;-77
2023/05/11 04:28:50;;;;;;;23.67;15.27;;;11.80;99.90;;;;;;5017251;28;20231;-80
2023/05/11 04:31:17;;;;;;;24.20;16.30;;;11.80;99.90;;;;;;5016555;28;20192;-80
2023/05/11 04:33:44;;;;;;;23.87;15.97;;;11.80;99.90;;;;;;5030531;28;20323;-81
2023/05/11 04:36:12;;;;;;;20.57;14.07;;;11.80;99.90;;;;;;5036196;28;20595;-79
2023/05/11 04:38:39;;;;;;;20.73;14.23;;;11.90;99.90;;;;;;5030787;28;20212;-76
2023/05/11 04:41:07;;;;;;;21.33;15.00;;;11.90;99.90;;;;;;5016838;28;20207;-79
2023/05/11 04:43:34;;;;;;;21.07;14.57;;;11.90;99.90;;;;;;5016722;28;20754;-79
2023/05/11 04:46:01;;;;;;;22.60;15.10;;;11.90;99.90;;;;;;5017050;28;20196;-76
2023/05/11 04:48:28;;;;;;;18.67;13.77;;;11.90;99.90;;;;;;5016784;28;20211;-80
2023/05/11 04:50:55;;;;;;;22.37;15.03;;;12.00;99.90;;;;;;5015997;28;20235;-80
2023/05/11 04:53:23;;;;;;;22.93;16.13;;;12.00;99.90;;;;;;5016107;28;20306;-79
2023/05/11 04:55:50;;;;;;;24.30;16.57;;;12.00;99.90;;;;;;5016694;28;20294;-77
2023/05/11 04:58:17;;;;;;;19.60;14.33;;;12.00;99.90;;;;;;5015794;28;20219;-76
2023/05/11 05:00:44;;;;;;;17.37;12.87;;;12.00;99.90;;;;;;5016757;28;20211;-76
2023/05/11 05:03:11;;;;;;;17.73;13.23;;;12.00;99.90;;;;;;5016546;28;20227;-76
2023/05/11 05:05:37;;;;;;;21.17;14.40;;;12.10;99.90;;;;;;5015926;28;20203;-77
2023/05/11 05:08:06;;;;;;;21.40;15.27;;;12.10;99.90;;;;;;5016542;28;20497;-78
2023/05/11 05:10:34;;;;;;;22.60;15.20;;;12.20;99.90;;;;;;5016913;28;20608;-80
2023/05/11 05:13:01;;;;;;;22.77;15.57;;;12.10;99.90;;;;;;5015740;28;20226;-76
2023/05/11 05:15:28;;;;;;;21.40;14.90;;;12.20;99.90;;;;;;5016274;28;20196;-81
2023/05/11 05:17:54;;;;;;;20.13;14.80;;;12.20;99.90;;;;;;5015966;28;20226;-80
2023/05/11 05:20:21;;;;;;;21.40;14.13;;;12.20;99.90;;;;;;5015748;28;20302;-76
2023/05/11 05:22:48;;;;;;;21.10;15.63;;;12.20;99.90;;;;;;5016220;28;20203;-80
2023/05/11 05:25:15;;;;;;;18.57;13.30;;;12.20;99.90;;;;;;5015739;28;20195;-81
2023/05/11 05:27:43;;;;;;;25.33;15.83;;;12.20;99.90;;;;;;5027869;28;20834;-80
2023/05/11 05:30:11;;;;;;;21.30;14.90;;;12.30;99.90;;;;;;5036021;28;20568;-76
2023/05/11 05:32:38;;;;;;;20.73;14.63;;;12.30;99.90;;;;;;5033912;28;20305;-77
2023/05/11 05:35:05;;;;;;;19.60;14.03;;;12.30;99.90;;;;;;5035963;28;20194;-75
2023/05/11 05:37:32;;;;;;;16.13;12.27;;;12.40;99.90;;;;;;5035621;28;20209;-80
2023/05/11 05:39:59;;;;;;;20.88;13.98;;;12.40;99.90;;;;;;5034432;28;20205;-81
2023/05/11 05:42:26;;;;;;;17.33;12.37;;;12.50;99.90;;;;;;5035728;28;20294;-80
2023/05/11 05:44:54;;;;;;;17.67;12.87;;;12.50;99.90;;;;;;5035544;28;20286;-78
2023/05/11 05:47:21;;;;;;;16.97;12.10;;;12.50;99.90;;;;;;5035137;28;20200;-79
2023/05/11 05:49:48;;;;;;;15.07;11.57;;;12.60;99.90;;;;;;5016432;28;20269;-78
2023/05/11 05:52:15;;;;;;;17.10;11.93;;;12.60;99.90;;;;;;5015703;28;20223;-77
2023/05/11 05:54:41;;;;;;;20.67;14.38;;;12.70;99.90;;;;;;5015247;28;20199;-80
2023/05/11 05:57:08;;;;;;;17.70;12.70;;;12.80;99.90;;;;;;5015159;28;20191;-80
2023/05/11 05:59:35;;;;;;;20.13;14.43;;;12.80;99.90;;;;;;5015930;28;20290;-77
2023/05/11 06:02:05;;;;;;;16.85;11.88;;;12.90;99.90;;;;;;5015307;28;20210;-80
2023/05/11 06:04:32;;;;;;;20.07;14.47;;;13.00;99.90;;;;;;5018976;28;20234;-77
2023/05/11 06:06:59;;;;;;;21.17;15.32;;;13.00;99.90;;;;;;5035075;28;20281;-78
2023/05/11 06:09:26;;;;;;;24.50;17.27;;;13.00;99.90;;;;;;5033957;28;20194;-77
2023/05/11 06:11:53;;;;;;;22.63;15.93;;;13.00;99.90;;;;;;5034517;28;20278;-74
2023/05/11 06:14:21;;;;;;;27.57;17.63;;;13.00;99.90;;;;;;5022083;28;20207;-74
2023/05/11 06:16:48;;;;;;;32.67;19.27;;;13.00;99.90;;;;;;5013972;28;20259;-76
2023/05/11 06:19:16;;;;;;;30.60;19.90;;;13.20;99.90;;;;;;5014780;28;20203;-75
2023/05/11 06:21:44;;;;;;;27.75;18.08;;;13.20;99.90;;;;;;5013859;28;20663;-74
2023/05/11 06:24:11;;;;;;;27.08;18.15;;;13.20;99.90;;;;;;5014971;28;20191;-75
2023/05/11 06:26:39;;;;;;;32.03;19.48;;;13.30;99.90;;;;;;5014500;28;20211;-76
2023/05/11 06:29:06;;;;;;;25.67;17.98;;;13.40;99.90;;;;;;5013868;28;20237;-75
2023/05/11 06:31:33;;;;;;;23.27;16.25;;;13.40;99.90;;;;;;5014565;28;20200;-76
2023/05/11 06:34:00;;;;;;;28.42;17.98;;;13.40;99.90;;;;;;5014480;28;20223;-75
2023/05/11 06:36:28;;;;;;;22.55;14.68;;;13.40;99.90;;;;;;5013563;28;20584;-74
2023/05/11 06:38:55;;;;;;;18.95;13.48;;;13.40;99.90;;;;;;5014144;28;20661;-76
2023/05/11 06:41:22;;;;;;;17.13;13.20;;;13.40;99.90;;;;;;5014364;28;20199;-75
2023/05/11 06:43:49;;;;;;;16.33;13.18;;;13.40;99.90;;;;;;5013143;28;20233;-75
2023/05/11 06:46:16;;;;;;;17.48;13.65;;;13.50;99.90;;;;;;5013934;28;20206;-74
2023/05/11 06:48:43;;;;;;;17.40;13.25;;;13.50;99.90;;;;;;5014186;28;20222;-75
2023/05/11 06:51:10;;;;;;;17.02;13.77;;;13.60;99.90;;;;;;5012588;28;20298;-74
2023/05/11 06:53:39;;;;;;;17.95;13.38;;;13.60;99.90;;;;;;5013679;28;20747;-74
2023/05/11 06:56:07;;;;;;;16.17;12.65;;;13.60;99.90;;;;;;5013820;28;20199;-75
2023/05/11 06:58:33;;;;;;;16.15;12.68;;;13.60;99.90;;;;;;5013118;28;20643;-76
2023/05/11 07:01:01;;;;;;;14.48;11.70;;;13.70;99.90;;;;;;5013978;28;20206;-75
2023/05/11 07:03:27;;;;;;;15.38;12.35;;;13.80;99.90;;;;;;5013706;28;20228;-75
2023/05/11 07:05:54;;;;;;;14.93;11.68;;;13.90;99.90;;;;;;5013284;28;20199;-74
2023/05/11 07:08:21;;;;;;;18.20;12.82;;;13.90;99.90;;;;;;5013902;28;20992;-75
2023/05/11 07:10:49;;;;;;;16.70;12.73;;;14.00;99.90;;;;;;5012990;28;20204;-74
2023/05/11 07:13:16;;;;;;;13.75;12.18;;;14.00;99.90;;;;;;5013873;28;20218;-75
2023/05/11 07:15:43;;;;;;;16.17;11.98;;;14.10;99.90;;;;;;5013423;28;20203;-77
2023/05/11 07:18:10;;;;;;;13.07;10.90;;;14.20;99.90;;;;;;5013086;28;20205;-75
2023/05/11 07:20:38;;;;;;;13.10;10.30;;;14.30;99.90;;;;;;5033003;28;20226;-74
2023/05/11 07:23:05;;;;;;;13.88;11.93;;;14.50;99.90;;;;;;5021404;28;20282;-75
2023/05/11 07:25:32;;;;;;;12.05;9.85;;;14.70;99.90;;;;;;5013343;28;20309;-76
2023/05/11 07:28:01;;;;;;;11.77;10.10;;;15.00;99.90;;;;;;5013459;28;20207;-79
2023/05/11 07:30:27;;;;;;;9.63;8.63;;;15.30;99.90;;;;;;5013941;28;20207;-77
2023/05/11 07:32:54;;;;;;;10.68;9.20;;;15.40;99.90;;;;;;5012867;28;20234;-76
2023/05/11 07:35:21;;;;;;;11.48;10.18;;;15.50;99.90;;;;;;5013772;28;20208;-79
2023/05/11 07:37:48;;;;;;;9.57;8.57;;;15.60;99.90;;;;;;5024938;28;20199;-74
2023/05/11 07:40:15;;;;;;;9.27;7.32;;;15.60;99.90;;;;;;5032912;28;20290;-75
2023/05/11 07:42:42;;;;;;;9.60;8.18;;;15.70;99.90;;;;;;5027501;28;20206;-76
2023/05/11 07:45:11;;;;;;;8.50;7.57;;;15.80;99.90;;;;;;5013495;28;20302;-76
2023/05/11 07:47:37;;;;;;;10.52;8.60;;;15.90;99.90;;;;;;5013009;28;20199;-74
2023/05/11 07:50:05;;;;;;;8.30;7.00;;;15.90;99.90;;;;;;5013084;28;20207;-76
2023/05/11 07:52:32;;;;;;;6.50;5.53;;;16.10;99.90;;;;;;5013409;28;20203;-75
2023/05/11 07:54:59;;;;;;;7.20;6.50;;;16.20;99.90;;;;;;5012801;28;20306;-81
2023/05/11 07:57:26;;;;;;;7.35;6.60;;;16.30;99.90;;;;;;5013453;28;20315;-75
2023/05/11 07:59:53;;;;;;;7.55;6.80;;;16.60;99.90;;;;;;5013263;28;20203;-75
2023/05/11 08:02:21;;;;;;;6.45;5.82;;;16.80;99.90;;;;;;5015254;28;20213;-74
2023/05/11 08:04:48;;;;;;;7.53;5.63;;;17.30;99.90;;;;;;5017106;28;20227;-78
2023/05/11 08:07:15;;;;;;;4.60;4.20;;;17.60;99.90;;;;;;5017266;28;20207;-78
2023/05/11 08:09:43;;;;;;;4.75;4.35;;;17.70;99.90;;;;;;5016974;28;20195;-75
2023/05/11 08:12:10;;;;;;;7.07;5.95;;;17.70;99.90;;;;;;5017076;28;20264;-76
2023/05/11 08:14:37;;;;;;;5.38;4.57;;;17.50;99.90;;;;;;5016428;28;20230;-78
2023/05/11 08:17:04;;;;;;;5.28;4.78;;;17.50;99.90;;;;;;5017219;28;20203;-75
2023/05/11 08:19:32;;;;;;;5.00;4.50;;;17.50;99.90;;;;;;5016789;28;20202;-74
2023/05/11 08:22:00;;;;;;;5.35;4.80;;;17.60;99.90;;;;;;5020615;28;20293;-77
2023/05/11 08:24:27;;;;;;;5.50;5.03;;;17.70;99.90;;;;;;5036790;28;20206;-77
2023/05/11 08:26:54;;;;;;;5.43;4.55;;;18.20;99.90;;;;;;5036977;28;20203;-75
2023/05/11 08:29:21;;;;;;;4.90;4.38;;;18.60;99.90;;;;;;5028558;28;20294;-77
2023/05/11 08:31:49;;;;;;;5.43;4.55;;;19.00;99.90;;;;;;5016622;28;20205;-77
2023/05/11 08:34:16;;;;;;;3.47;3.15;;;19.40;99.90;;;;;;5016449;28;20223;-75
2023/05/11 08:36:44;;;;;;;5.20;4.70;;;19.20;99.90;;;;;;5015940;28;20196;-75
2023/05/11 08:39:11;;;;;;;6.45;5.85;;;19.30;99.90;;;;;;5016661;28;20199;-74
2023/05/11 08:41:38;;;;;;;5.30;4.80;;;19.00;99.90;;;;;;5016664;28;20646;-75
2023/05/11 08:44:06;;;;;;;5.55;5.05;;;18.70;99.90;;;;;;5015663;28;20222;-73
2023/05/11 08:46:36;;;;;;;5.90;5.18;;;18.70;99.90;;;;;;5016489;28;20199;-75
2023/05/11 08:49:03;;;;;;;5.38;4.72;;;18.40;99.90;;;;;;5025562;28;20199;-74
2023/05/11 08:51:31;;;;;;;6.40;5.80;;;18.30;99.90;;;;;;5035742;28;20203;-75
2023/05/11 08:53:59;;;;;;;4.90;4.40;;;18.20;99.90;;;;;;5035287;28;20619;-75
2023/05/11 08:56:29;;;;;;;5.03;4.57;;;18.10;99.90;;;;;;5035365;28;20207;-75
2023/05/11 08:58:57;;;;;;;5.35;4.57;;;18.00;99.90;;;;;;5035686;28;20222;-74
2023/05/11 09:01:27;;;;;;;4.72;4.20;;;17.90;99.90;;;;;;5035336;28;20664;-75
2023/05/11 09:03:56;;;;;;;4.90;3.63;;;17.70;99.90;;;;;;5015559;28;20223;-75
2023/05/11 09:06:24;;;;;;;3.90;3.55;;;17.60;99.90;;;;;;5015981;28;20492;-74
2023/05/11 09:08:51;;;;;;;4.72;4.00;;;17.60;99.90;;;;;;5016179;28;20230;-75
2023/05/11 09:11:20;;;;;;;4.13;3.60;;;17.50;99.90;;;;;;5024885;28;20212;-80
2023/05/11 09:13:47;;;;;;;4.13;3.72;;;17.50;99.90;;;;;;5034949;28;20250;-80
2023/05/11 09:16:14;;;;;;;3.60;2.70;;;17.60;99.90;;;;;;5021554;28;20217;-80
2023/05/11 09:18:47;;;;;;;3.50;3.20;;;17.70;99.90;;;;;;5015224;28;20651;-74
2023/05/11 09:21:14;;;;;;;4.25;3.60;;;17.90;99.90;;;;;;5015975;28;20218;-74
2023/05/11 09:23:41;;;;;;;4.47;3.55;;;18.10;99.90;;;;;;5015644;28;20600;-75
2023/05/11 09:26:14;;;;;;;7.57;4.32;;;18.20;99.90;;;;;;5015011;28;20203;-75
2023/05/11 09:28:51;;;;;;;5.05;4.20;;;18.30;99.90;;;;;;5015402;28;20234;-74
2023/05/11 09:31:38;;;;;;;5.50;4.45;;;18.40;99.90;;;;;;5015775;28;20198;-75
2023/05/11 09:34:12;;;;;;;4.30;3.90;;;18.50;99.90;;;;;;5015577;28;20494;-75
2023/05/11 09:36:39;;;;;;;3.70;3.40;;;18.60;99.90;;;;;;5028084;28;20209;-75
2023/05/11 09:39:07;;;;;;;8.50;7.63;;;18.90;99.90;;;;;;5034825;28;20205;-75
2023/05/11 09:41:35;;;;;;;7.85;7.05;;;19.40;99.90;;;;;;5027002;28;20712;-79
2023/05/11 09:44:08;;;;;;;7.80;7.00;;;19.60;99.90;;;;;;5015213;28;20199;-77
2023/05/11 09:46:36;;;;;;;8.40;7.50;;;19.50;99.90;;;;;;5014621;28;20507;-76
2023/05/11 09:49:03;;;;;;;7.65;6.88;;;19.50;99.90;;;;;;5033328;28;20305;-75
2023/05/11 09:51:32;;;;;;;6.78;6.07;;;19.30;99.90;;;;;;5034952;28;20285;-75
2023/05/11 09:53:59;;;;;;;8.40;6.80;;;19.10;99.90;;;;;;5028964;28;20229;-75
2023/05/11 09:56:45;;;;;;;8.48;7.65;;;18.90;99.90;;;;;;5015231;28;20588;-75
2023/05/11 09:59:15;;;;;;;8.13;7.32;;;18.60;99.90;;;;;;5015399;28;20223;-75
2023/05/11 10:01:42;;;;;;;8.77;7.68;;;18.50;99.90;;;;;;5014844;28;20210;-76
2023/05/11 10:04:09;;;;;;;8.75;7.38;;;18.40;99.90;;;;;;5014772;28;20226;-75
2023/05/11 10:06:47;;;;;;;7.97;7.00;;;18.20;99.90;;;;;;5013951;28;21808;-80
2023/05/11 10:09:16;;;;;;;9.32;7.30;;;18.10;99.90;;;;;;5015257;28;20599;-79
2023/05/11 10:11:45;;;;;;;9.95;6.25;;;18.00;99.90;;;;;;5015550;28;20263;-80
2023/05/11 10:14:14;;;;;;;7.38;6.68;;;17.90;99.90;;;;;;5014885;28;20231;-81
2023/05/11 10:16:43;;;;;;;7.50;5.35;;;18.00;99.90;;;;;;5014681;28;20207;-80
2023/05/11 10:19:10;;;;;;;8.50;6.13;;;18.10;99.90;;;;;;5018968;28;20203;-80
2023/05/11 10:21:38;;;;;;;7.60;5.72;;;18.10;99.90;;;;;;5016827;28;20207;-75
2023/05/11 10:24:06;;;;;;;6.03;5.03;;;18.20;99.90;;;;;;5015307;28;20543;-81
2023/05/11 10:26:33;;;;;;;7.35;4.75;;;18.20;99.90;;;;;;5015034;28;20199;-79
2023/05/11 10:29:01;;;;;;;5.65;4.75;;;18.30;99.90;;;;;;5027343;28;20260;-80
2023/05/11 10:31:31;;;;;;;6.05;5.32;;;18.40;99.90;;;;;;5034540;28;20198;-81
2023/05/11 10:34:00;;;;;;;6.45;4.95;;;18.60;99.90;;;;;;5033782;28;20659;-76
2023/05/11 10:36:28;;;;;;;6.15;5.07;;;18.90;99.90;;;;;;5033688;28;20205;-75
2023/05/11 10:38:54;;;;;;;8.02;5.70;;;19.20;99.90;;;;;;5032800;28;20194;-77
2023/05/11 10:41:35;;;;;;;7.68;5.93;;;19.50;99.90;;;;;;5033909;28;20298;-76
2023/05/11 10:44:35;;;;;;;7.15;5.65;;;19.70;99.90;;;;;;5013531;28;20615;-75
2023/05/11 10:47:20;;;;;;;7.78;5.80;;;20.00;99.90;;;;;;5014127;28;20211;-75
2023/05/11 10:50:21;;;;;;;8.00;5.50;;;20.30;99.90;;;;;;5013711;28;20321;-76
2023/05/11 10:53:08;;;;;;;5.75;4.47;;;20.40;99.90;;;;;;5014297;28;20199;-78
2023/05/11 10:55:49;;;;;;;3.67;3.22;;;20.30;99.90;;;;;;5013931;28;20223;-77
2023/05/11 10:58:23;;;;;;;3.70;2.38;;;20.10;99.90;;;;;;5013910;28;20255;-76
2023/05/11 11:01:29;;;;;;;2.83;1.98;;;20.20;99.90;;;;;;5014340;28;20202;-76
2023/05/11 11:04:00;;;;;;;4.93;1.85;;;20.30;99.90;;;;;;5007271;28;20231;-77
2023/05/11 11:06:28;;;;;;;3.40;1.63;;;20.30;99.90;;;;;;5014094;28;20289;-76
2023/05/11 11:08:57;;;;;;;3.67;1.58;;;20.30;99.90;;;;;;5013869;28;20195;-76
2023/05/11 11:11:31;;;;;;;3.35;1.55;;;20.30;99.90;;;;;;5013644;28;20246;-76
2023/05/11 11:14:01;;;;;;;1.98;1.20;;;20.20;99.90;;;;;;5013504;28;20222;-76
2023/05/11 11:16:28;;;;;;;2.00;1.20;;;19.90;99.90;;;;;;5013794;28;20202;-76
2023/05/11 11:19:39;;;;;;;1.63;1.20;;;19.80;99.90;;;;;;5012815;28;20199;-77
2023/05/11 11:22:26;;;;;;;3.80;1.80;;;19.50;99.90;;;;;;4952497;29;20666;-76
2023/05/11 11:24:53;;;;;;;2.60;1.90;;;19.20;99.90;;;;;;5031675;28;20631;-76
2023/05/11 11:27:54;;;;;;;6.07;3.50;;;18.80;99.90;;;;;;5023704;28;20602;-76
2023/05/11 11:30:22;;;;;;;5.45;3.60;;;18.60;99.90;;;;;;5013389;28;20217;-76
2023/05/11 11:32:50;;;;;;;5.75;3.72;;;18.40;99.90;;;;;;5013018;28;20210;-76
2023/05/11 11:35:47;;;;;;;4.65;3.40;;;18.20;99.90;;;;;;5014220;28;20226;-76
2023/05/11 11:38:16;;;;;;;4.63;3.30;;;18.10;99.90;;;;;;5012833;28;20658;-76
2023/05/11 11:40:44;;;;;;;4.63;3.42;;;17.90;99.90;;;;;;5013179;28;20643;-75
2023/05/11 11:43:12;;;;;;;6.50;3.38;;;17.70;99.90;;;;;;5013478;28;20235;-76
2023/05/11 11:45:40;;;;;;;8.32;3.38;;;17.50;99.90;;;;;;5012881;28;20279;-77
2023/05/11 11:48:14;;;;;;;4.20;3.20;;;17.40;99.90;;;;;;5013433;28;20521;-77
2023/05/11 11:50:43;;;;;;;3.60;2.65;;;17.20;99.90;;;;;;5021591;28;20198;-76
2023/05/11 11:53:13;;;;;;;5.90;3.70;;;17.20;99.90;;;;;;5032510;28;20205;-78
2023/05/11 11:55:48;;;;;;;5.93;4.10;;;17.20;99.90;;;;;;5033394;28;20218;-77
2023/05/11 11:58:53;;;;;;;7.28;5.45;;;17.20;99.90;;;;;;5033302;28;20222;-79
2023/05/11 12:01:21;;;;;;;7.85;5.75;;;17.10;99.90;;;;;;5015892;28;20245;-75
2023/05/11 12:03:58;;;;;;;9.60;6.90;;;17.00;99.90;;;;;;5012992;28;20322;-75
2023/05/11 12:06:31;;;;;;;9.00;6.95;;;16.80;99.90;;;;;;5026414;28;20205;-77
2023/05/11 12:08:59;;;;;;;8.88;7.03;;;16.60;99.90;;;;;;5033233;28;20217;-76
2023/05/11 12:11:29;;;;;;;8.52;6.85;;;16.50;99.90;;;;;;5032172;28;20206;-74
2023/05/11 12:13:56;;;;;;;9.02;6.68;;;16.50;99.90;;;;;;5032366;28;20289;-76
2023/05/11 12:16:23;;;;;;;10.77;6.95;;;16.60;99.90;;;;;;5033119;28;20235;-76
2023/05/11 12:18:53;;;;;;;7.63;5.88;;;16.50;99.90;;;;;;5032881;28;20213;-76
2023/05/11 12:21:20;;;;;;;10.07;6.85;;;16.40;99.90;;;;;;5021253;28;20502;-77
2023/05/11 12:23:53;;;;;;;10.07;6.18;;;16.50;99.90;;;;;;5013419;28;20273;-77
2023/05/11 12:26:22;;;;;;;6.95;5.78;;;16.50;99.90;;;;;;5013147;28;20542;-77
2023/05/11 12:28:50;;;;;;;7.72;6.00;;;16.40;99.90;;;;;;5012597;28;20207;-76
2023/05/11 12:31:17;;;;;;;9.63;5.50;;;16.30;99.90;;;;;;5013007;28;20196;-77
2023/05/11 12:33:47;;;;;;;13.77;7.35;;;16.20;99.90;;;;;;5013411;28;20642;-81
2023/05/11 12:36:15;;;;;;;8.38;6.18;;;16.20;99.90;;;;;;5018970;28;20235;-76
2023/05/11 12:38:45;;;;;;;8.30;6.18;;;16.20;99.90;;;;;;5033732;28;20203;-79
2023/05/11 12:41:19;;;;;;;6.85;5.20;;;16.30;99.90;;;;;;5028012;28;20230;-76
2023/05/11 12:43:48;;;;;;;9.02;6.22;;;16.30;99.90;;;;;;5013021;28;20260;-77
2023/05/11 12:46:15;;;;;;;7.00;6.30;;;16.30;99.90;;;;;;5023006;28;20203;-80